Ostend Airport 2018/08/19 13:20 EBOS 191320Z 23016KT 9999 SCT032 24/15 Q1020 NOSIG

Lille Airport 2018/08/19 13:00 LFQQ 191300Z AUTO 20013KT 9999 BKN025 BKN100 22/14 Q1021 BECMG 26012KT

Brussels Airport 2018/08/19 13:20 EBBR 191320Z 23012KT 210V270 9999 FEW033 23/15 Q1020 NOSIG